sensor_id;sensor_type;location;lat;lon;timestamp;P1;durP1;ratioP1;P2;durP2;ratioP2
30533;SDS011;17318;52.390;9.754;2023-05-07T00:01:25;25.55;;;15.35;;
30533;SDS011;17318;52.390;9.754;2023-05-07T00:03:51;24.85;;;14.38;;
30533;SDS011;17318;52.390;9.754;2023-05-07T00:06:16;21.17;;;14.18;;
30533;SDS011;17318;52.390;9.754;2023-05-07T00:08:42;23.40;;;14.13;;
30533;SDS011;17318;52.390;9.754;2023-05-07T00:11:08;23.25;;;13.77;;
30533;SDS011;17318;52.390;9.754;2023-05-07T00:13:33;23.40;;;14.20;;
30533;SDS011;17318;52.390;9.754;2023-05-07T00:16:01;22.50;;;14.18;;
30533;SDS011;17318;52.390;9.754;2023-05-07T00:18:28;24.95;;;14.43;;
30533;SDS011;17318;52.390;9.754;2023-05-07T00:20:53;24.60;;;14.15;;
30533;SDS011;17318;52.390;9.754;2023-05-07T00:23:19;23.52;;;14.82;;
30533;SDS011;17318;52.390;9.754;2023-05-07T00:25:44;26.13;;;14.43;;
30533;SDS011;17318;52.390;9.754;2023-05-07T00:28:12;26.65;;;14.80;;
30533;SDS011;17318;52.390;9.754;2023-05-07T00:33:04;21.52;;;13.43;;
30533;SDS011;17318;52.390;9.754;2023-05-07T00:35:29;24.48;;;13.88;;
30533;SDS011;17318;52.390;9.754;2023-05-07T00:37:55;30.35;;;16.05;;
30533;SDS011;17318;52.390;9.754;2023-05-07T00:40:21;23.63;;;13.73;;
30533;SDS011;17318;52.390;9.754;2023-05-07T00:42:46;26.10;;;16.35;;
30533;SDS011;17318;52.390;9.754;2023-05-07T00:45:13;31.00;;;17.30;;
30533;SDS011;17318;52.390;9.754;2023-05-07T00:47:40;27.45;;;15.35;;
30533;SDS011;17318;52.390;9.754;2023-05-07T00:50:06;29.98;;;16.23;;
30533;SDS011;17318;52.390;9.754;2023-05-07T00:52:32;31.25;;;16.75;;
30533;SDS011;17318;52.390;9.754;2023-05-07T00:54:59;29.67;;;15.48;;
30533;SDS011;17318;52.390;9.754;2023-05-07T00:57:29;30.17;;;16.73;;
30533;SDS011;17318;52.390;9.754;2023-05-07T01:00:05;26.63;;;15.88;;
30533;SDS011;17318;52.390;9.754;2023-05-07T01:02:33;31.20;;;17.02;;
30533;SDS011;17318;52.390;9.754;2023-05-07T01:05:00;30.77;;;15.68;;
30533;SDS011;17318;52.390;9.754;2023-05-07T01:07:26;29.33;;;16.77;;
30533;SDS011;17318;52.390;9.754;2023-05-07T01:09:53;27.58;;;15.45;;
30533;SDS011;17318;52.390;9.754;2023-05-07T01:12:19;33.00;;;16.35;;
30533;SDS011;17318;52.390;9.754;2023-05-07T01:14:45;28.52;;;16.23;;
30533;SDS011;17318;52.390;9.754;2023-05-07T01:17:11;30.95;;;17.05;;
30533;SDS011;17318;52.390;9.754;2023-05-07T01:19:37;27.02;;;16.52;;
30533;SDS011;17318;52.390;9.754;2023-05-07T01:22:06;34.15;;;17.48;;
30533;SDS011;17318;52.390;9.754;2023-05-07T01:24:33;31.98;;;17.02;;
30533;SDS011;17318;52.390;9.754;2023-05-07T01:27:01;27.40;;;16.80;;
30533;SDS011;17318;52.390;9.754;2023-05-07T01:29:27;29.20;;;16.77;;
30533;SDS011;17318;52.390;9.754;2023-05-07T01:31:53;28.67;;;16.23;;
30533;SDS011;17318;52.390;9.754;2023-05-07T01:34:22;31.70;;;17.70;;
30533;SDS011;17318;52.390;9.754;2023-05-07T01:36:49;28.42;;;16.88;;
30533;SDS011;17318;52.390;9.754;2023-05-07T01:39:15;32.53;;;17.75;;
30533;SDS011;17318;52.390;9.754;2023-05-07T01:41:42;29.25;;;16.55;;
30533;SDS011;17318;52.390;9.754;2023-05-07T01:44:08;32.70;;;18.23;;
30533;SDS011;17318;52.390;9.754;2023-05-07T01:46:37;32.10;;;17.30;;
30533;SDS011;17318;52.390;9.754;2023-05-07T01:49:03;32.45;;;17.73;;
30533;SDS011;17318;52.390;9.754;2023-05-07T01:51:29;29.80;;;16.65;;
30533;SDS011;17318;52.390;9.754;2023-05-07T01:53:55;30.35;;;18.08;;
30533;SDS011;17318;52.390;9.754;2023-05-07T01:56:21;31.48;;;17.48;;
30533;SDS011;17318;52.390;9.754;2023-05-07T01:58:47;27.55;;;16.70;;
30533;SDS011;17318;52.390;9.754;2023-05-07T02:01:13;27.48;;;16.33;;
30533;SDS011;17318;52.390;9.754;2023-05-07T02:03:39;29.25;;;16.25;;
30533;SDS011;17318;52.390;9.754;2023-05-07T02:06:05;27.42;;;15.98;;
30533;SDS011;17318;52.390;9.754;2023-05-07T02:08:30;27.40;;;14.50;;
30533;SDS011;17318;52.390;9.754;2023-05-07T02:10:56;26.20;;;14.43;;
30533;SDS011;17318;52.390;9.754;2023-05-07T02:13:22;27.67;;;13.23;;
30533;SDS011;17318;52.390;9.754;2023-05-07T02:15:49;27.10;;;13.63;;
30533;SDS011;17318;52.390;9.754;2023-05-07T02:18:15;22.75;;;13.35;;
30533;SDS011;17318;52.390;9.754;2023-05-07T02:20:42;21.70;;;12.05;;
30533;SDS011;17318;52.390;9.754;2023-05-07T02:23:08;20.20;;;11.98;;
30533;SDS011;17318;52.390;9.754;2023-05-07T02:25:33;19.17;;;11.65;;
30533;SDS011;17318;52.390;9.754;2023-05-07T02:27:59;19.25;;;10.85;;
30533;SDS011;17318;52.390;9.754;2023-05-07T02:30:25;19.30;;;11.70;;
30533;SDS011;17318;52.390;9.754;2023-05-07T02:32:50;20.77;;;10.93;;
30533;SDS011;17318;52.390;9.754;2023-05-07T02:35:16;18.48;;;10.00;;
30533;SDS011;17318;52.390;9.754;2023-05-07T02:37:42;16.17;;;9.52;;
30533;SDS011;17318;52.390;9.754;2023-05-07T02:40:08;17.52;;;9.20;;
30533;SDS011;17318;52.390;9.754;2023-05-07T02:42:34;15.00;;;9.40;;
30533;SDS011;17318;52.390;9.754;2023-05-07T02:45:00;17.50;;;9.85;;
30533;SDS011;17318;52.390;9.754;2023-05-07T02:47:26;15.90;;;8.90;;
30533;SDS011;17318;52.390;9.754;2023-05-07T02:49:53;15.75;;;9.48;;
30533;SDS011;17318;52.390;9.754;2023-05-07T02:52:19;13.52;;;8.00;;
30533;SDS011;17318;52.390;9.754;2023-05-07T02:54:45;14.07;;;8.68;;
30533;SDS011;17318;52.390;9.754;2023-05-07T02:57:11;13.73;;;8.95;;
30533;SDS011;17318;52.390;9.754;2023-05-07T02:59:36;14.75;;;9.15;;
30533;SDS011;17318;52.390;9.754;2023-05-07T03:02:02;16.38;;;8.55;;
30533;SDS011;17318;52.390;9.754;2023-05-07T03:04:27;16.25;;;9.65;;
30533;SDS011;17318;52.390;9.754;2023-05-07T03:06:53;14.93;;;8.68;;
30533;SDS011;17318;52.390;9.754;2023-05-07T03:09:19;15.05;;;9.48;;
30533;SDS011;17318;52.390;9.754;2023-05-07T03:11:45;15.88;;;9.07;;
30533;SDS011;17318;52.390;9.754;2023-05-07T03:14:11;14.73;;;9.18;;
30533;SDS011;17318;52.390;9.754;2023-05-07T03:16:37;15.00;;;8.95;;
30533;SDS011;17318;52.390;9.754;2023-05-07T03:19:03;15.82;;;9.35;;
30533;SDS011;17318;52.390;9.754;2023-05-07T03:21:29;16.48;;;9.43;;
30533;SDS011;17318;52.390;9.754;2023-05-07T03:23:55;17.77;;;9.30;;
30533;SDS011;17318;52.390;9.754;2023-05-07T03:26:21;15.07;;;8.85;;
30533;SDS011;17318;52.390;9.754;2023-05-07T03:28:47;15.48;;;8.38;;
30533;SDS011;17318;52.390;9.754;2023-05-07T03:31:13;19.83;;;9.32;;
30533;SDS011;17318;52.390;9.754;2023-05-07T03:33:47;16.00;;;9.57;;
30533;SDS011;17318;52.390;9.754;2023-05-07T03:36:18;16.50;;;8.70;;
30533;SDS011;17318;52.390;9.754;2023-05-07T03:38:44;13.02;;;7.57;;
30533;SDS011;17318;52.390;9.754;2023-05-07T03:41:10;13.88;;;8.63;;
30533;SDS011;17318;52.390;9.754;2023-05-07T03:43:36;14.15;;;8.38;;
30533;SDS011;17318;52.390;9.754;2023-05-07T03:46:02;12.32;;;7.80;;
30533;SDS011;17318;52.390;9.754;2023-05-07T03:48:27;17.08;;;8.55;;
30533;SDS011;17318;52.390;9.754;2023-05-07T03:50:53;14.90;;;7.45;;
30533;SDS011;17318;52.390;9.754;2023-05-07T03:53:18;13.88;;;8.20;;
30533;SDS011;17318;52.390;9.754;2023-05-07T03:55:44;13.63;;;8.07;;
30533;SDS011;17318;52.390;9.754;2023-05-07T03:58:10;13.25;;;8.13;;
30533;SDS011;17318;52.390;9.754;2023-05-07T04:00:35;18.80;;;8.35;;
30533;SDS011;17318;52.390;9.754;2023-05-07T04:03:03;13.35;;;8.35;;
30533;SDS011;17318;52.390;9.754;2023-05-07T04:05:30;15.65;;;8.55;;
30533;SDS011;17318;52.390;9.754;2023-05-07T04:07:57;14.35;;;7.28;;
30533;SDS011;17318;52.390;9.754;2023-05-07T04:10:23;11.60;;;7.55;;
30533;SDS011;17318;52.390;9.754;2023-05-07T04:12:49;13.98;;;8.65;;
30533;SDS011;17318;52.390;9.754;2023-05-07T04:15:14;12.20;;;7.65;;
30533;SDS011;17318;52.390;9.754;2023-05-07T04:17:40;14.13;;;7.43;;
30533;SDS011;17318;52.390;9.754;2023-05-07T04:20:08;14.27;;;7.20;;
30533;SDS011;17318;52.390;9.754;2023-05-07T04:22:35;13.40;;;7.97;;
30533;SDS011;17318;52.390;9.754;2023-05-07T04:25:02;13.05;;;7.75;;
30533;SDS011;17318;52.390;9.754;2023-05-07T04:27:28;13.10;;;7.72;;
30533;SDS011;17318;52.390;9.754;2023-05-07T04:29:54;12.07;;;7.63;;
30533;SDS011;17318;52.390;9.754;2023-05-07T04:32:20;12.68;;;8.43;;
30533;SDS011;17318;52.390;9.754;2023-05-07T04:34:47;12.13;;;7.47;;
30533;SDS011;17318;52.390;9.754;2023-05-07T04:37:13;14.23;;;8.60;;
30533;SDS011;17318;52.390;9.754;2023-05-07T04:39:38;14.07;;;8.18;;
30533;SDS011;17318;52.390;9.754;2023-05-07T04:42:04;15.00;;;8.80;;
30533;SDS011;17318;52.390;9.754;2023-05-07T04:46:58;12.43;;;8.30;;
30533;SDS011;17318;52.390;9.754;2023-05-07T04:49:23;13.98;;;8.48;;
30533;SDS011;17318;52.390;9.754;2023-05-07T04:51:49;14.13;;;8.23;;
30533;SDS011;17318;52.390;9.754;2023-05-07T04:54:15;12.65;;;8.50;;
30533;SDS011;17318;52.390;9.754;2023-05-07T04:56:40;11.52;;;7.50;;
30533;SDS011;17318;52.390;9.754;2023-05-07T04:59:06;15.27;;;8.50;;
30533;SDS011;17318;52.390;9.754;2023-05-07T05:01:32;14.80;;;8.15;;
30533;SDS011;17318;52.390;9.754;2023-05-07T05:03:58;13.77;;;8.15;;
30533;SDS011;17318;52.390;9.754;2023-05-07T05:06:25;14.20;;;8.38;;
30533;SDS011;17318;52.390;9.754;2023-05-07T05:08:50;14.70;;;8.77;;
30533;SDS011;17318;52.390;9.754;2023-05-07T05:11:16;12.68;;;8.32;;
30533;SDS011;17318;52.390;9.754;2023-05-07T05:13:42;14.60;;;8.25;;
30533;SDS011;17318;52.390;9.754;2023-05-07T05:16:07;12.40;;;7.35;;
30533;SDS011;17318;52.390;9.754;2023-05-07T05:18:33;13.10;;;7.50;;
30533;SDS011;17318;52.390;9.754;2023-05-07T05:20:59;13.07;;;8.40;;
30533;SDS011;17318;52.390;9.754;2023-05-07T05:23:25;14.80;;;7.72;;
30533;SDS011;17318;52.390;9.754;2023-05-07T05:25:55;11.80;;;7.68;;
30533;SDS011;17318;52.390;9.754;2023-05-07T05:28:23;11.15;;;7.47;;
30533;SDS011;17318;52.390;9.754;2023-05-07T05:30:49;12.80;;;7.28;;
30533;SDS011;17318;52.390;9.754;2023-05-07T05:33:15;13.57;;;7.28;;
30533;SDS011;17318;52.390;9.754;2023-05-07T05:35:41;12.85;;;7.65;;
30533;SDS011;17318;52.390;9.754;2023-05-07T05:38:07;15.25;;;8.50;;
30533;SDS011;17318;52.390;9.754;2023-05-07T05:40:33;17.08;;;8.07;;
30533;SDS011;17318;52.390;9.754;2023-05-07T05:42:59;11.52;;;7.90;;
30533;SDS011;17318;52.390;9.754;2023-05-07T05:45:25;15.52;;;7.97;;
30533;SDS011;17318;52.390;9.754;2023-05-07T05:47:50;11.95;;;7.90;;
30533;SDS011;17318;52.390;9.754;2023-05-07T05:50:16;14.95;;;8.20;;
30533;SDS011;17318;52.390;9.754;2023-05-07T05:52:42;11.05;;;7.22;;
30533;SDS011;17318;52.390;9.754;2023-05-07T05:55:08;11.63;;;7.47;;
30533;SDS011;17318;52.390;9.754;2023-05-07T05:57:34;8.27;;;6.28;;
30533;SDS011;17318;52.390;9.754;2023-05-07T06:00:01;10.45;;;6.80;;
30533;SDS011;17318;52.390;9.754;2023-05-07T06:02:27;8.65;;;6.57;;
30533;SDS011;17318;52.390;9.754;2023-05-07T06:04:53;9.95;;;6.72;;
30533;SDS011;17318;52.390;9.754;2023-05-07T06:07:19;10.88;;;7.70;;
30533;SDS011;17318;52.390;9.754;2023-05-07T06:09:44;9.98;;;6.78;;
30533;SDS011;17318;52.390;9.754;2023-05-07T06:12:10;10.15;;;7.03;;
30533;SDS011;17318;52.390;9.754;2023-05-07T06:14:36;10.70;;;6.93;;
30533;SDS011;17318;52.390;9.754;2023-05-07T06:17:02;12.10;;;6.63;;
30533;SDS011;17318;52.390;9.754;2023-05-07T06:19:28;11.90;;;6.97;;
30533;SDS011;17318;52.390;9.754;2023-05-07T06:21:53;12.18;;;7.18;;
30533;SDS011;17318;52.390;9.754;2023-05-07T06:24:21;10.50;;;6.13;;
30533;SDS011;17318;52.390;9.754;2023-05-07T06:26:47;9.13;;;6.40;;
30533;SDS011;17318;52.390;9.754;2023-05-07T06:29:13;9.40;;;6.10;;
30533;SDS011;17318;52.390;9.754;2023-05-07T06:31:38;10.52;;;6.95;;
30533;SDS011;17318;52.390;9.754;2023-05-07T06:34:04;11.50;;;6.93;;
30533;SDS011;17318;52.390;9.754;2023-05-07T06:36:30;8.65;;;6.13;;
30533;SDS011;17318;52.390;9.754;2023-05-07T06:38:55;12.60;;;6.22;;
30533;SDS011;17318;52.390;9.754;2023-05-07T06:41:21;8.07;;;5.88;;
30533;SDS011;17318;52.390;9.754;2023-05-07T06:43:47;8.82;;;6.22;;
30533;SDS011;17318;52.390;9.754;2023-05-07T06:46:12;9.13;;;6.47;;
30533;SDS011;17318;52.390;9.754;2023-05-07T06:48:38;11.20;;;6.65;;
30533;SDS011;17318;52.390;9.754;2023-05-07T06:51:03;9.80;;;7.32;;
30533;SDS011;17318;52.390;9.754;2023-05-07T06:53:29;10.25;;;6.65;;
30533;SDS011;17318;52.390;9.754;2023-05-07T06:55:56;10.20;;;7.00;;
30533;SDS011;17318;52.390;9.754;2023-05-07T06:58:22;9.95;;;7.72;;
30533;SDS011;17318;52.390;9.754;2023-05-07T07:00:47;13.15;;;7.65;;
30533;SDS011;17318;52.390;9.754;2023-05-07T07:03:13;10.90;;;7.47;;
30533;SDS011;17318;52.390;9.754;2023-05-07T07:05:42;13.80;;;8.23;;
30533;SDS011;17318;52.390;9.754;2023-05-07T07:08:08;8.65;;;6.47;;
30533;SDS011;17318;52.390;9.754;2023-05-07T07:10:34;11.63;;;8.07;;
30533;SDS011;17318;52.390;9.754;2023-05-07T07:13:00;12.02;;;8.38;;
30533;SDS011;17318;52.390;9.754;2023-05-07T07:15:26;12.60;;;7.68;;
30533;SDS011;17318;52.390;9.754;2023-05-07T07:17:52;11.10;;;8.43;;
30533;SDS011;17318;52.390;9.754;2023-05-07T07:20:17;11.25;;;8.40;;
30533;SDS011;17318;52.390;9.754;2023-05-07T07:22:43;12.85;;;9.07;;
30533;SDS011;17318;52.390;9.754;2023-05-07T07:25:09;12.20;;;9.27;;
30533;SDS011;17318;52.390;9.754;2023-05-07T07:27:36;13.45;;;9.35;;
30533;SDS011;17318;52.390;9.754;2023-05-07T07:30:02;12.50;;;8.57;;
30533;SDS011;17318;52.390;9.754;2023-05-07T07:32:28;13.65;;;9.40;;
30533;SDS011;17318;52.390;9.754;2023-05-07T07:34:54;15.90;;;8.45;;
30533;SDS011;17318;52.390;9.754;2023-05-07T07:37:20;14.88;;;9.38;;
30533;SDS011;17318;52.390;9.754;2023-05-07T07:39:45;13.82;;;9.85;;
30533;SDS011;17318;52.390;9.754;2023-05-07T07:42:11;16.45;;;9.45;;
30533;SDS011;17318;52.390;9.754;2023-05-07T07:44:36;14.60;;;9.77;;
30533;SDS011;17318;52.390;9.754;2023-05-07T07:47:04;12.45;;;8.45;;
30533;SDS011;17318;52.390;9.754;2023-05-07T07:49:31;13.00;;;9.18;;
30533;SDS011;17318;52.390;9.754;2023-05-07T07:51:57;13.23;;;8.00;;
30533;SDS011;17318;52.390;9.754;2023-05-07T07:54:24;14.30;;;7.45;;
30533;SDS011;17318;52.390;9.754;2023-05-07T07:56:50;14.27;;;8.18;;
30533;SDS011;17318;52.390;9.754;2023-05-07T07:59:16;11.30;;;7.93;;
30533;SDS011;17318;52.390;9.754;2023-05-07T08:01:43;9.70;;;7.65;;
30533;SDS011;17318;52.390;9.754;2023-05-07T08:04:10;11.18;;;8.13;;
30533;SDS011;17318;52.390;9.754;2023-05-07T08:06:36;10.73;;;7.25;;
30533;SDS011;17318;52.390;9.754;2023-05-07T08:09:02;10.02;;;6.93;;
30533;SDS011;17318;52.390;9.754;2023-05-07T08:11:28;11.40;;;7.95;;
30533;SDS011;17318;52.390;9.754;2023-05-07T08:13:55;10.55;;;7.13;;
30533;SDS011;17318;52.390;9.754;2023-05-07T08:16:21;11.23;;;7.88;;
30533;SDS011;17318;52.390;9.754;2023-05-07T08:18:47;10.38;;;6.40;;
30533;SDS011;17318;52.390;9.754;2023-05-07T08:21:13;9.00;;;6.82;;
30533;SDS011;17318;52.390;9.754;2023-05-07T08:23:38;9.95;;;6.53;;
30533;SDS011;17318;52.390;9.754;2023-05-07T08:26:04;8.40;;;6.68;;
30533;SDS011;17318;52.390;9.754;2023-05-07T08:28:30;11.65;;;6.75;;
30533;SDS011;17318;52.390;9.754;2023-05-07T08:30:56;12.20;;;7.47;;
30533;SDS011;17318;52.390;9.754;2023-05-07T08:33:24;8.32;;;6.20;;
30533;SDS011;17318;52.390;9.754;2023-05-07T08:35:50;10.20;;;6.80;;
30533;SDS011;17318;52.390;9.754;2023-05-07T08:38:16;8.95;;;6.70;;
30533;SDS011;17318;52.390;9.754;2023-05-07T08:40:41;17.80;;;7.00;;
30533;SDS011;17318;52.390;9.754;2023-05-07T08:43:07;12.07;;;7.05;;
30533;SDS011;17318;52.390;9.754;2023-05-07T08:45:33;8.98;;;6.40;;
30533;SDS011;17318;52.390;9.754;2023-05-07T08:48:01;10.60;;;6.93;;
30533;SDS011;17318;52.390;9.754;2023-05-07T08:50:28;8.50;;;6.50;;
30533;SDS011;17318;52.390;9.754;2023-05-07T08:52:55;11.02;;;6.68;;
30533;SDS011;17318;52.390;9.754;2023-05-07T08:55:21;10.60;;;7.15;;
30533;SDS011;17318;52.390;9.754;2023-05-07T08:57:47;10.60;;;7.25;;
30533;SDS011;17318;52.390;9.754;2023-05-07T09:00:13;10.23;;;6.57;;
30533;SDS011;17318;52.390;9.754;2023-05-07T09:02:39;8.75;;;6.22;;
30533;SDS011;17318;52.390;9.754;2023-05-07T09:05:05;8.52;;;6.32;;
30533;SDS011;17318;52.390;9.754;2023-05-07T09:07:32;11.40;;;7.38;;
30533;SDS011;17318;52.390;9.754;2023-05-07T09:09:57;9.75;;;7.45;;
30533;SDS011;17318;52.390;9.754;2023-05-07T09:12:24;11.27;;;7.50;;
30533;SDS011;17318;52.390;9.754;2023-05-07T09:14:50;10.43;;;7.00;;
30533;SDS011;17318;52.390;9.754;2023-05-07T09:17:16;12.10;;;7.68;;
30533;SDS011;17318;52.390;9.754;2023-05-07T09:19:43;10.43;;;7.43;;
30533;SDS011;17318;52.390;9.754;2023-05-07T09:22:09;10.73;;;7.35;;
30533;SDS011;17318;52.390;9.754;2023-05-07T09:24:35;15.15;;;7.68;;
30533;SDS011;17318;52.390;9.754;2023-05-07T09:27:06;12.50;;;7.55;;
30533;SDS011;17318;52.390;9.754;2023-05-07T09:29:33;11.23;;;7.50;;
30533;SDS011;17318;52.390;9.754;2023-05-07T09:32:04;11.50;;;7.90;;
30533;SDS011;17318;52.390;9.754;2023-05-07T09:34:31;12.07;;;7.78;;
30533;SDS011;17318;52.390;9.754;2023-05-07T09:37:03;11.57;;;7.00;;
30533;SDS011;17318;52.390;9.754;2023-05-07T09:39:45;11.15;;;7.28;;
30533;SDS011;17318;52.390;9.754;2023-05-07T09:42:12;11.48;;;6.80;;
30533;SDS011;17318;52.390;9.754;2023-05-07T09:44:39;13.18;;;7.78;;
30533;SDS011;17318;52.390;9.754;2023-05-07T09:47:06;9.52;;;6.70;;
30533;SDS011;17318;52.390;9.754;2023-05-07T09:49:36;10.57;;;6.72;;
30533;SDS011;17318;52.390;9.754;2023-05-07T09:52:05;12.02;;;7.82;;
30533;SDS011;17318;52.390;9.754;2023-05-07T09:54:35;9.82;;;6.90;;
30533;SDS011;17318;52.390;9.754;2023-05-07T09:57:02;11.20;;;7.93;;
30533;SDS011;17318;52.390;9.754;2023-05-07T09:59:30;10.82;;;7.03;;
30533;SDS011;17318;52.390;9.754;2023-05-07T10:01:57;12.90;;;7.55;;
30533;SDS011;17318;52.390;9.754;2023-05-07T10:04:26;10.70;;;7.50;;
30533;SDS011;17318;52.390;9.754;2023-05-07T10:06:52;12.40;;;8.27;;
30533;SDS011;17318;52.390;9.754;2023-05-07T10:09:20;11.27;;;7.72;;
30533;SDS011;17318;52.390;9.754;2023-05-07T10:11:47;10.65;;;7.93;;
30533;SDS011;17318;52.390;9.754;2023-05-07T10:16:40;10.43;;;7.43;;
30533;SDS011;17318;52.390;9.754;2023-05-07T10:19:06;10.88;;;7.25;;
30533;SDS011;17318;52.390;9.754;2023-05-07T10:21:36;11.45;;;7.95;;
30533;SDS011;17318;52.390;9.754;2023-05-07T10:24:04;14.27;;;7.55;;
30533;SDS011;17318;52.390;9.754;2023-05-07T10:26:39;11.90;;;7.13;;
30533;SDS011;17318;52.390;9.754;2023-05-07T10:34:33;13.00;;;8.10;;
30533;SDS011;17318;52.390;9.754;2023-05-07T10:37:07;9.98;;;7.75;;
30533;SDS011;17318;52.390;9.754;2023-05-07T10:39:34;11.38;;;7.28;;
30533;SDS011;17318;52.390;9.754;2023-05-07T10:42:10;10.35;;;7.40;;
30533;SDS011;17318;52.390;9.754;2023-05-07T10:44:36;11.35;;;7.30;;
30533;SDS011;17318;52.390;9.754;2023-05-07T10:47:09;9.32;;;7.53;;
30533;SDS011;17318;52.390;9.754;2023-05-07T10:54:42;8.00;;;6.13;;
30533;SDS011;17318;52.390;9.754;2023-05-07T10:57:54;9.65;;;6.93;;
30533;SDS011;17318;52.390;9.754;2023-05-07T11:00:47;7.82;;;5.72;;
30533;SDS011;17318;52.390;9.754;2023-05-07T11:05:25;9.63;;;6.03;;
30533;SDS011;17318;52.390;9.754;2023-05-07T11:07:56;8.13;;;5.93;;
30533;SDS011;17318;52.390;9.754;2023-05-07T11:10:22;11.60;;;6.47;;
30533;SDS011;17318;52.390;9.754;2023-05-07T11:12:49;9.18;;;6.43;;
30533;SDS011;17318;52.390;9.754;2023-05-07T11:15:32;8.93;;;5.97;;
30533;SDS011;17318;52.390;9.754;2023-05-07T11:18:07;10.85;;;6.00;;
30533;SDS011;17318;52.390;9.754;2023-05-07T11:26:06;9.60;;;5.82;;
30533;SDS011;17318;52.390;9.754;2023-05-07T11:28:40;7.43;;;5.30;;
30533;SDS011;17318;52.390;9.754;2023-05-07T11:31:07;9.82;;;6.25;;
30533;SDS011;17318;52.390;9.754;2023-05-07T11:33:33;8.27;;;5.75;;
30533;SDS011;17318;52.390;9.754;2023-05-07T11:36:00;8.70;;;5.53;;
30533;SDS011;17318;52.390;9.754;2023-05-07T11:38:27;6.40;;;4.82;;
30533;SDS011;17318;52.390;9.754;2023-05-07T11:40:55;7.60;;;5.60;;
30533;SDS011;17318;52.390;9.754;2023-05-07T11:43:22;6.55;;;5.35;;
30533;SDS011;17318;52.390;9.754;2023-05-07T11:45:48;8.57;;;6.15;;
30533;SDS011;17318;52.390;9.754;2023-05-07T11:48:15;6.68;;;5.15;;
30533;SDS011;17318;52.390;9.754;2023-05-07T11:50:50;6.93;;;5.38;;
30533;SDS011;17318;52.390;9.754;2023-05-07T11:53:17;7.13;;;5.28;;
30533;SDS011;17318;52.390;9.754;2023-05-07T11:55:43;6.22;;;4.82;;
30533;SDS011;17318;52.390;9.754;2023-05-07T11:58:10;7.05;;;5.63;;
30533;SDS011;17318;52.390;9.754;2023-05-07T12:00:37;8.73;;;4.53;;
30533;SDS011;17318;52.390;9.754;2023-05-07T12:03:03;5.90;;;4.68;;
30533;SDS011;17318;52.390;9.754;2023-05-07T12:05:29;6.53;;;4.55;;
30533;SDS011;17318;52.390;9.754;2023-05-07T12:07:56;6.47;;;5.03;;
30533;SDS011;17318;52.390;9.754;2023-05-07T12:10:22;7.22;;;4.90;;
30533;SDS011;17318;52.390;9.754;2023-05-07T12:12:49;5.55;;;4.45;;
30533;SDS011;17318;52.390;9.754;2023-05-07T12:15:15;8.80;;;4.55;;
30533;SDS011;17318;52.390;9.754;2023-05-07T12:17:42;6.63;;;4.68;;
30533;SDS011;17318;52.390;9.754;2023-05-07T12:20:08;6.80;;;4.90;;
30533;SDS011;17318;52.390;9.754;2023-05-07T12:22:35;6.38;;;4.90;;
30533;SDS011;17318;52.390;9.754;2023-05-07T12:25:02;6.05;;;4.50;;
30533;SDS011;17318;52.390;9.754;2023-05-07T12:27:28;5.63;;;4.35;;
30533;SDS011;17318;52.390;9.754;2023-05-07T12:29:53;5.53;;;4.43;;
30533;SDS011;17318;52.390;9.754;2023-05-07T12:32:20;5.97;;;4.35;;
30533;SDS011;17318;52.390;9.754;2023-05-07T12:34:47;5.47;;;3.95;;
30533;SDS011;17318;52.390;9.754;2023-05-07T12:37:15;5.15;;;4.20;;
30533;SDS011;17318;52.390;9.754;2023-05-07T12:39:46;7.38;;;3.80;;
30533;SDS011;17318;52.390;9.754;2023-05-07T12:42:16;5.72;;;3.92;;
30533;SDS011;17318;52.390;9.754;2023-05-07T12:44:45;4.53;;;3.40;;
30533;SDS011;17318;52.390;9.754;2023-05-07T12:47:11;4.22;;;3.58;;
30533;SDS011;17318;52.390;9.754;2023-05-07T12:49:40;6.68;;;4.20;;
30533;SDS011;17318;52.390;9.754;2023-05-07T12:52:06;8.68;;;3.90;;
30533;SDS011;17318;52.390;9.754;2023-05-07T12:54:32;6.38;;;3.83;;
30533;SDS011;17318;52.390;9.754;2023-05-07T12:57:04;6.47;;;4.00;;
30533;SDS011;17318;52.390;9.754;2023-05-07T12:59:35;5.25;;;3.55;;
30533;SDS011;17318;52.390;9.754;2023-05-07T13:02:02;6.32;;;3.90;;
30533;SDS011;17318;52.390;9.754;2023-05-07T13:04:28;4.20;;;3.60;;
30533;SDS011;17318;52.390;9.754;2023-05-07T13:06:54;6.80;;;4.60;;
30533;SDS011;17318;52.390;9.754;2023-05-07T13:09:19;8.50;;;4.57;;
30533;SDS011;17318;52.390;9.754;2023-05-07T13:11:45;6.85;;;4.15;;
30533;SDS011;17318;52.390;9.754;2023-05-07T13:14:11;5.95;;;4.85;;
30533;SDS011;17318;52.390;9.754;2023-05-07T13:16:37;10.02;;;6.00;;
30533;SDS011;17318;52.390;9.754;2023-05-07T13:19:03;9.60;;;5.75;;
30533;SDS011;17318;52.390;9.754;2023-05-07T13:21:29;5.68;;;4.60;;
30533;SDS011;17318;52.390;9.754;2023-05-07T13:23:56;6.32;;;4.32;;
30533;SDS011;17318;52.390;9.754;2023-05-07T13:26:23;6.93;;;4.88;;
30533;SDS011;17318;52.390;9.754;2023-05-07T13:28:48;5.43;;;3.90;;
30533;SDS011;17318;52.390;9.754;2023-05-07T13:31:15;7.68;;;4.13;;
30533;SDS011;17318;52.390;9.754;2023-05-07T13:33:41;7.20;;;4.45;;
30533;SDS011;17318;52.390;9.754;2023-05-07T13:36:06;6.35;;;4.03;;
30533;SDS011;17318;52.390;9.754;2023-05-07T13:38:32;7.07;;;5.07;;
30533;SDS011;17318;52.390;9.754;2023-05-07T13:40:58;8.40;;;5.20;;
30533;SDS011;17318;52.390;9.754;2023-05-07T13:43:24;10.93;;;5.47;;
30533;SDS011;17318;52.390;9.754;2023-05-07T13:45:50;6.90;;;4.75;;
30533;SDS011;17318;52.390;9.754;2023-05-07T13:48:16;6.25;;;4.07;;
30533;SDS011;17318;52.390;9.754;2023-05-07T13:50:41;5.97;;;4.55;;
30533;SDS011;17318;52.390;9.754;2023-05-07T13:53:07;5.72;;;4.88;;
30533;SDS011;17318;52.390;9.754;2023-05-07T13:55:33;6.43;;;4.63;;
30533;SDS011;17318;52.390;9.754;2023-05-07T13:58:00;7.13;;;5.22;;
30533;SDS011;17318;52.390;9.754;2023-05-07T14:00:26;5.67;;;4.90;;
30533;SDS011;17318;52.390;9.754;2023-05-07T14:02:53;5.93;;;4.78;;
30533;SDS011;17318;52.390;9.754;2023-05-07T14:05:19;6.57;;;4.72;;
30533;SDS011;17318;52.390;9.754;2023-05-07T14:07:45;7.78;;;4.90;;
30533;SDS011;17318;52.390;9.754;2023-05-07T14:10:12;6.45;;;5.03;;
30533;SDS011;17318;52.390;9.754;2023-05-07T14:12:38;5.35;;;4.05;;
30533;SDS011;17318;52.390;9.754;2023-05-07T14:15:04;6.53;;;5.00;;
30533;SDS011;17318;52.390;9.754;2023-05-07T14:17:30;8.05;;;5.15;;
30533;SDS011;17318;52.390;9.754;2023-05-07T14:19:57;5.78;;;4.05;;
30533;SDS011;17318;52.390;9.754;2023-05-07T14:22:23;5.22;;;4.50;;
30533;SDS011;17318;52.390;9.754;2023-05-07T14:24:49;6.05;;;4.32;;
30533;SDS011;17318;52.390;9.754;2023-05-07T14:27:15;10.30;;;6.18;;
30533;SDS011;17318;52.390;9.754;2023-05-07T14:29:41;6.93;;;5.18;;
30533;SDS011;17318;52.390;9.754;2023-05-07T14:32:07;7.05;;;4.63;;
30533;SDS011;17318;52.390;9.754;2023-05-07T14:34:33;6.07;;;4.40;;
30533;SDS011;17318;52.390;9.754;2023-05-07T14:36:59;9.13;;;5.50;;
30533;SDS011;17318;52.390;9.754;2023-05-07T14:39:25;8.77;;;5.15;;
30533;SDS011;17318;52.390;9.754;2023-05-07T14:41:51;6.93;;;5.22;;
30533;SDS011;17318;52.390;9.754;2023-05-07T14:44:19;8.95;;;5.25;;
30533;SDS011;17318;52.390;9.754;2023-05-07T14:46:45;6.90;;;5.10;;
30533;SDS011;17318;52.390;9.754;2023-05-07T14:49:11;11.85;;;5.72;;
30533;SDS011;17318;52.390;9.754;2023-05-07T14:51:42;7.05;;;5.60;;
30533;SDS011;17318;52.390;9.754;2023-05-07T14:54:11;9.45;;;5.00;;
30533;SDS011;17318;52.390;9.754;2023-05-07T14:56:40;7.22;;;4.97;;
30533;SDS011;17318;52.390;9.754;2023-05-07T14:59:07;6.22;;;4.30;;